Time;durP1;ratioP1;P1;durP2;ratioP2;P2;SDS_P1;SDS_P2;PMS_P1;PMS_P2;Temp;Humidity;BMP_temperature;BMP_pressure;BME280_temperature;BME280_humidity;BME280_pressure;Samples;Min_cycle;Max_cycle;Signal;HPM_P1;HPM_P2
2024/01/14 00:01:47;;;;;;;11.05;1.63;;;3.20;99.90;;;;;;5080437;28;20048;-66
2024/01/14 00:04:13;;;;;;;14.00;2.08;;;3.20;99.90;;;;;;5077550;28;20035;-64
2024/01/14 00:06:38;;;;;;;8.13;1.30;;;3.20;99.90;;;;;;5080679;28;20420;-63
2024/01/14 00:09:04;;;;;;;10.85;1.85;;;3.20;99.90;;;;;;5076638;28;20902;-64
2024/01/14 00:11:29;;;;;;;10.85;1.92;;;3.20;99.90;;;;;;5067108;28;20071;-65
2024/01/14 00:13:55;;;;;;;16.00;1.80;;;3.30;99.90;;;;;;5076040;28;20130;-64
2024/01/14 00:16:21;;;;;;;14.93;1.80;;;3.30;99.90;;;;;;5079822;28;20409;-66
2024/01/14 00:18:47;;;;;;;9.60;1.48;;;3.30;99.90;;;;;;5078478;28;20467;-65
2024/01/14 00:21:13;;;;;;;10.20;1.50;;;3.20;99.90;;;;;;5077439;28;20131;-64
2024/01/14 00:23:39;;;;;;;9.18;1.40;;;3.30;99.90;;;;;;5079413;28;20123;-64
2024/01/14 00:26:04;;;;;;;13.25;1.50;;;3.20;99.90;;;;;;5080425;28;20395;-63
2024/01/14 00:28:30;;;;;;;11.18;1.77;;;3.20;99.90;;;;;;5078616;28;20434;-65
2024/01/14 00:30:55;;;;;;;8.98;1.30;;;3.20;99.90;;;;;;5081083;28;20036;-64
2024/01/14 00:33:21;;;;;;;7.15;1.58;;;3.20;99.90;;;;;;5078080;28;20035;-65
2024/01/14 00:35:47;;;;;;;12.77;1.45;;;3.20;99.90;;;;;;5081001;28;20085;-65
2024/01/14 00:38:13;;;;;;;10.20;1.67;;;3.20;99.90;;;;;;5072824;28;20048;-65
2024/01/14 00:40:39;;;;;;;8.15;1.63;;;3.20;99.90;;;;;;5074264;28;20118;-65
2024/01/14 00:43:05;;;;;;;7.53;1.13;;;3.20;99.90;;;;;;5076892;28;20123;-64
2024/01/14 00:45:30;;;;;;;9.43;1.45;;;3.20;99.90;;;;;;5078741;28;20466;-64
2024/01/14 00:47:56;;;;;;;11.25;1.45;;;3.20;99.90;;;;;;5080168;28;20028;-64
2024/01/14 00:50:21;;;;;;;12.35;1.55;;;3.30;99.90;;;;;;5077541;28;20078;-66
2024/01/14 00:52:47;;;;;;;9.07;1.20;;;3.30;99.90;;;;;;5079888;28;20032;-63
2024/01/14 00:55:13;;;;;;;7.97;1.25;;;3.30;99.90;;;;;;5077219;28;20098;-66
2024/01/14 00:57:39;;;;;;;10.95;1.70;;;3.40;99.90;;;;;;5080305;28;20044;-65
2024/01/14 01:00:09;;;;;;;10.48;1.40;;;3.40;99.90;;;;;;5077974;28;20039;-66
2024/01/14 01:02:35;;;;;;;11.15;1.50;;;3.40;99.90;;;;;;5064017;28;20585;-64
2024/01/14 01:05:01;;;;;;;10.18;1.30;;;3.40;99.90;;;;;;5061255;28;20056;-64
2024/01/14 01:07:27;;;;;;;13.93;1.85;;;3.40;99.90;;;;;;5078453;28;20131;-64
2024/01/14 01:09:53;;;;;;;10.75;1.55;;;3.40;99.90;;;;;;5074502;28;20125;-64
2024/01/14 01:12:18;;;;;;;9.57;1.50;;;3.40;99.90;;;;;;5078634;28;20403;-64
2024/01/14 01:14:45;;;;;;;7.40;1.20;;;3.50;99.90;;;;;;5063694;28;20063;-64
2024/01/14 01:17:11;;;;;;;8.27;1.42;;;3.50;99.90;;;;;;5077656;28;20060;-63
2024/01/14 01:19:37;;;;;;;11.15;1.10;;;3.50;99.90;;;;;;5077669;28;20528;-63
2024/01/14 01:22:03;;;;;;;10.27;1.65;;;3.50;99.90;;;;;;5078874;28;20036;-65
2024/01/14 01:24:28;;;;;;;17.35;1.95;;;3.50;99.90;;;;;;5082800;28;20421;-64
2024/01/14 01:26:54;;;;;;;10.43;1.40;;;3.50;99.90;;;;;;5080209;28;20039;-65
2024/01/14 01:29:19;;;;;;;11.60;1.50;;;3.50;99.90;;;;;;5079752;28;20514;-65
2024/01/14 01:31:45;;;;;;;10.70;1.33;;;3.60;99.90;;;;;;5063822;28;20048;-63
2024/01/14 01:34:11;;;;;;;13.50;1.30;;;3.60;99.90;;;;;;5082521;28;20052;-65
2024/01/14 01:36:37;;;;;;;7.60;1.48;;;3.60;99.90;;;;;;5081093;28;20044;-64
2024/01/14 01:39:03;;;;;;;6.38;1.10;;;3.60;99.90;;;;;;5076026;28;20125;-65
2024/01/14 01:41:28;;;;;;;4.90;0.98;;;3.70;99.90;;;;;;5075404;28;20504;-65
2024/01/14 01:43:54;;;;;;;11.10;1.35;;;3.70;99.90;;;;;;5065693;28;20135;-64
2024/01/14 01:46:20;;;;;;;10.38;1.45;;;3.70;99.90;;;;;;5081305;28;20127;-65
2024/01/14 01:48:46;;;;;;;8.63;1.48;;;3.80;99.90;;;;;;5082620;28;20418;-65
2024/01/14 01:51:13;;;;;;;8.73;1.23;;;3.70;99.90;;;;;;5075812;28;20135;-65
2024/01/14 01:53:40;;;;;;;10.30;1.27;;;3.80;99.90;;;;;;5081909;28;20048;-63
2024/01/14 01:56:06;;;;;;;7.93;1.45;;;3.80;99.90;;;;;;5074606;28;21097;-65
2024/01/14 01:58:31;;;;;;;10.23;1.52;;;3.70;99.90;;;;;;5080364;28;20123;-64
2024/01/14 02:00:57;;;;;;;7.07;1.20;;;3.70;99.90;;;;;;5080704;28;20126;-64
2024/01/14 02:03:24;;;;;;;11.40;1.75;;;3.70;99.90;;;;;;5079262;28;20499;-66
2024/01/14 02:05:54;;;;;;;9.65;1.50;;;3.60;99.90;;;;;;5081025;28;20097;-65
2024/01/14 02:08:20;;;;;;;12.95;1.83;;;3.50;99.90;;;;;;5074435;28;20442;-64
2024/01/14 02:10:46;;;;;;;10.40;1.55;;;3.50;99.90;;;;;;5064142;28;20105;-66
2024/01/14 02:13:11;;;;;;;10.23;1.40;;;3.40;99.90;;;;;;5077667;28;20051;-64
2024/01/14 02:15:37;;;;;;;10.32;1.40;;;3.40;99.90;;;;;;5079925;28;20392;-66
2024/01/14 02:18:03;;;;;;;11.82;1.27;;;3.40;99.90;;;;;;5079565;28;20072;-65
2024/01/14 02:20:28;;;;;;;13.00;1.60;;;3.40;99.90;;;;;;5080425;28;20056;-65
2024/01/14 02:22:56;;;;;;;11.23;1.35;;;3.40;99.90;;;;;;5060981;28;20036;-65
2024/01/14 02:25:22;;;;;;;14.02;1.35;;;3.40;99.90;;;;;;5082047;28;20032;-65
2024/01/14 02:27:49;;;;;;;17.05;1.55;;;3.50;99.90;;;;;;5082252;28;20074;-65
2024/01/14 02:30:15;;;;;;;12.73;1.65;;;3.60;99.90;;;;;;5062839;28;20483;-65
2024/01/14 02:32:41;;;;;;;10.52;2.58;;;3.60;99.90;;;;;;5077426;28;20044;-65
2024/01/14 02:35:07;;;;;;;11.32;1.40;;;3.60;99.90;;;;;;5079146;28;20039;-65
2024/01/14 02:37:33;;;;;;;9.00;2.15;;;3.60;99.90;;;;;;5064474;28;20371;-65
2024/01/14 02:39:59;;;;;;;13.57;1.83;;;3.60;99.90;;;;;;5078336;28;20152;-66
2024/01/14 02:42:25;;;;;;;14.10;1.40;;;3.60;99.90;;;;;;5064275;28;20477;-64
2024/01/14 02:44:50;;;;;;;10.82;1.80;;;3.60;99.90;;;;;;5080056;28;20116;-64
2024/01/14 02:47:16;;;;;;;14.57;1.60;;;3.60;99.90;;;;;;5081668;28;20089;-66
2024/01/14 02:49:42;;;;;;;8.32;1.45;;;3.60;99.90;;;;;;5079696;28;20039;-65
2024/01/14 02:52:08;;;;;;;11.30;1.58;;;3.50;99.90;;;;;;5079251;28;20055;-64
2024/01/14 02:54:33;;;;;;;8.32;1.30;;;3.40;99.90;;;;;;5077490;28;20044;-65
2024/01/14 02:56:59;;;;;;;10.02;2.70;;;3.40;99.90;;;;;;5077812;28;20164;-66
2024/01/14 02:59:25;;;;;;;10.45;1.30;;;3.40;99.90;;;;;;5081163;28;20051;-64
2024/01/14 03:01:50;;;;;;;9.77;1.30;;;3.30;99.90;;;;;;5080676;28;20399;-63
2024/01/14 03:04:16;;;;;;;12.43;1.20;;;3.30;99.90;;;;;;5083736;28;20040;-64
2024/01/14 03:06:42;;;;;;;9.48;1.40;;;3.30;99.90;;;;;;5077974;28;20036;-65
2024/01/14 03:09:09;;;;;;;13.57;2.30;;;3.30;99.90;;;;;;5081162;28;20047;-66
2024/01/14 03:11:35;;;;;;;12.35;1.83;;;3.30;99.90;;;;;;5077635;28;20069;-63
2024/01/14 03:14:01;;;;;;;11.23;1.48;;;3.30;99.90;;;;;;5077091;28;20048;-65
2024/01/14 03:16:27;;;;;;;6.45;1.35;;;3.30;99.90;;;;;;5079049;28;20056;-65
2024/01/14 03:18:52;;;;;;;16.20;2.63;;;3.30;99.90;;;;;;5077365;28;20117;-64
2024/01/14 03:21:18;;;;;;;11.30;1.10;;;3.40;99.90;;;;;;5083055;28;20036;-65
2024/01/14 03:23:45;;;;;;;12.10;1.20;;;3.40;99.90;;;;;;5077344;28;20028;-65
2024/01/14 03:26:10;;;;;;;13.00;1.35;;;3.40;99.90;;;;;;5079274;28;20037;-65
2024/01/14 03:28:36;;;;;;;11.63;1.55;;;3.30;99.90;;;;;;5075538;28;20093;-63
2024/01/14 03:31:02;;;;;;;8.68;1.27;;;3.30;99.90;;;;;;5079415;28;20093;-64
2024/01/14 03:33:27;;;;;;;11.90;1.73;;;3.40;99.90;;;;;;5080160;28;20784;-65
2024/01/14 03:35:54;;;;;;;7.88;1.63;;;3.40;99.90;;;;;;5083541;28;20118;-64
2024/01/14 03:38:20;;;;;;;11.32;1.70;;;3.30;99.90;;;;;;5075233;28;20044;-66
2024/01/14 03:40:46;;;;;;;14.02;1.73;;;3.30;99.90;;;;;;5075042;28;20051;-64
2024/01/14 03:43:12;;;;;;;10.32;1.45;;;3.30;99.90;;;;;;5076721;28;20117;-64
2024/01/14 03:45:37;;;;;;;9.10;0.98;;;3.30;99.90;;;;;;5078640;28;20063;-65
2024/01/14 03:48:03;;;;;;;6.57;1.05;;;3.20;99.90;;;;;;5081424;28;20036;-66
2024/01/14 03:50:29;;;;;;;8.18;1.40;;;3.20;99.90;;;;;;5078375;28;20052;-64
2024/01/14 03:52:55;;;;;;;6.88;1.13;;;3.20;99.90;;;;;;5078573;28;20035;-64
2024/01/14 03:55:20;;;;;;;11.88;1.20;;;3.20;99.90;;;;;;5080230;28;20036;-64
2024/01/14 03:57:46;;;;;;;11.95;1.17;;;3.20;99.90;;;;;;5076408;28;20489;-64
2024/01/14 04:00:13;;;;;;;12.73;1.85;;;3.20;99.90;;;;;;5073780;28;20043;-64
2024/01/14 04:02:39;;;;;;;11.60;1.95;;;3.30;99.90;;;;;;5078574;28;20028;-64
2024/01/14 04:05:05;;;;;;;8.98;1.70;;;3.30;99.90;;;;;;5077913;28;20032;-64
2024/01/14 04:07:30;;;;;;;6.53;0.90;;;3.30;99.90;;;;;;5081090;28;20043;-65
2024/01/14 04:09:56;;;;;;;10.38;1.30;;;3.40;99.90;;;;;;5078157;28;20044;-65
2024/01/14 04:12:21;;;;;;;7.10;1.90;;;3.30;99.90;;;;;;5063215;28;20392;-64
2024/01/14 04:14:47;;;;;;;5.93;0.95;;;3.30;99.90;;;;;;5077805;28;20047;-65
2024/01/14 04:17:13;;;;;;;8.82;1.13;;;3.40;99.90;;;;;;5078256;28;20055;-64
2024/01/14 04:19:39;;;;;;;7.00;1.10;;;3.30;99.90;;;;;;5078154;28;20036;-65
2024/01/14 04:22:05;;;;;;;12.30;1.58;;;3.30;99.90;;;;;;5076612;28;20052;-64
2024/01/14 04:24:31;;;;;;;8.43;1.30;;;3.30;99.90;;;;;;5077859;28;20135;-65
2024/01/14 04:26:56;;;;;;;8.63;1.67;;;3.30;99.90;;;;;;5080036;28;20131;-64
2024/01/14 04:29:22;;;;;;;12.82;1.40;;;3.30;99.90;;;;;;5078536;28;20054;-63
2024/01/14 04:31:47;;;;;;;10.98;1.15;;;3.30;99.90;;;;;;5076034;28;20040;-64
2024/01/14 04:34:13;;;;;;;10.23;1.50;;;3.30;99.90;;;;;;5077192;28;20037;-66
2024/01/14 04:36:38;;;;;;;8.48;1.83;;;3.20;99.90;;;;;;5076541;28;20079;-64
2024/01/14 04:39:05;;;;;;;5.28;1.00;;;3.20;99.90;;;;;;5079398;28;20045;-63
2024/01/14 04:41:31;;;;;;;6.90;1.10;;;3.20;99.90;;;;;;5076736;28;20055;-65
2024/01/14 04:43:56;;;;;;;9.45;1.60;;;3.20;99.90;;;;;;5077104;28;20664;-63
2024/01/14 04:46:22;;;;;;;8.80;1.60;;;3.20;99.90;;;;;;5077510;28;20048;-65
2024/01/14 04:48:47;;;;;;;8.23;1.20;;;3.20;99.90;;;;;;5076246;28;20039;-64
2024/01/14 04:51:13;;;;;;;8.80;1.67;;;3.20;99.90;;;;;;5079262;28;20063;-65
2024/01/14 04:53:39;;;;;;;5.07;0.90;;;3.20;99.90;;;;;;5075017;28;22308;-65
2024/01/14 04:56:08;;;;;;;4.43;0.90;;;3.30;99.90;;;;;;5079126;28;20466;-64
2024/01/14 04:58:33;;;;;;;6.57;1.13;;;3.20;99.90;;;;;;5080363;28;20479;-65
2024/01/14 05:00:59;;;;;;;10.32;2.13;;;3.20;99.90;;;;;;5083295;28;20122;-65
2024/01/14 05:03:25;;;;;;;6.45;1.73;;;3.30;99.90;;;;;;5078681;28;20036;-66
2024/01/14 05:05:50;;;;;;;9.35;1.33;;;3.30;99.90;;;;;;5078471;28;20071;-64
2024/01/14 05:08:16;;;;;;;7.55;2.30;;;3.30;99.90;;;;;;5083369;28;20040;-65
2024/01/14 05:10:41;;;;;;;6.47;1.25;;;3.30;99.90;;;;;;5062571;28;20697;-65
2024/01/14 05:13:07;;;;;;;8.65;1.58;;;3.30;99.90;;;;;;5080085;28;20144;-64
2024/01/14 05:15:33;;;;;;;11.02;1.10;;;3.20;99.90;;;;;;5077934;28;20058;-65
2024/01/14 05:17:59;;;;;;;9.65;1.40;;;3.20;99.90;;;;;;5066276;28;20474;-64
2024/01/14 05:20:24;;;;;;;11.10;1.10;;;3.10;99.90;;;;;;5080085;28;20052;-64
2024/01/14 05:22:50;;;;;;;11.70;1.00;;;3.20;99.90;;;;;;5083468;28;20036;-64
2024/01/14 05:25:15;;;;;;;7.47;1.20;;;3.20;99.90;;;;;;5078758;28;20131;-65
2024/01/14 05:27:41;;;;;;;10.63;1.48;;;3.20;99.90;;;;;;5081058;28;20035;-65
2024/01/14 05:30:08;;;;;;;9.20;1.05;;;3.10;99.90;;;;;;5081988;28;20036;-65
2024/01/14 05:32:34;;;;;;;8.95;1.00;;;3.20;99.90;;;;;;5082403;28;20036;-63
2024/01/14 05:34:59;;;;;;;9.52;1.60;;;3.10;99.90;;;;;;5082889;28;20057;-65
2024/01/14 05:37:25;;;;;;;8.43;1.25;;;3.10;99.90;;;;;;5078513;28;20040;-66
2024/01/14 05:39:50;;;;;;;7.82;1.08;;;3.00;99.90;;;;;;5082241;28;20452;-64
2024/01/14 05:42:16;;;;;;;13.55;1.77;;;3.00;99.90;;;;;;5079759;28;20032;-66
2024/01/14 05:44:42;;;;;;;8.35;1.20;;;3.10;99.90;;;;;;5080492;28;20596;-65
2024/01/14 05:47:08;;;;;;;14.15;1.65;;;3.00;99.90;;;;;;5078157;28;20054;-66
2024/01/14 05:49:34;;;;;;;8.00;1.00;;;3.00;99.90;;;;;;5083908;28;20473;-66
2024/01/14 05:52:00;;;;;;;8.38;1.15;;;3.00;99.90;;;;;;5081286;28;20044;-64
2024/01/14 05:54:26;;;;;;;9.48;1.20;;;3.00;99.90;;;;;;5081794;28;20056;-65
2024/01/14 05:56:52;;;;;;;12.93;1.70;;;2.90;99.90;;;;;;5072704;28;20097;-65
2024/01/14 05:59:17;;;;;;;8.95;1.20;;;2.90;99.90;;;;;;5083574;28;20052;-65
2024/01/14 06:01:43;;;;;;;6.70;1.20;;;2.90;99.90;;;;;;5062649;28;20056;-64
2024/01/14 06:04:08;;;;;;;10.38;1.20;;;3.00;99.90;;;;;;5064808;28;20056;-64
2024/01/14 06:06:34;;;;;;;7.68;0.95;;;2.90;99.90;;;;;;5083156;28;20509;-66
2024/01/14 06:09:00;;;;;;;7.00;1.38;;;2.90;99.90;;;;;;5077334;28;20371;-68
2024/01/14 06:11:26;;;;;;;11.65;1.20;;;2.90;99.90;;;;;;5078438;28;22238;-65
2024/01/14 06:13:51;;;;;;;9.63;1.23;;;2.90;99.90;;;;;;5080248;28;20048;-66
2024/01/14 06:16:17;;;;;;;7.53;1.30;;;2.90;99.90;;;;;;5079237;28;20114;-64
2024/01/14 06:18:42;;;;;;;7.00;0.90;;;2.90;99.90;;;;;;5081801;28;20177;-64
2024/01/14 06:21:08;;;;;;;5.60;1.00;;;2.90;99.90;;;;;;5080472;28;20138;-65
2024/01/14 06:23:35;;;;;;;6.95;0.90;;;2.90;99.90;;;;;;5068186;28;20068;-66
2024/01/14 06:26:01;;;;;;;6.63;1.10;;;2.90;99.90;;;;;;5077840;28;20049;-65
2024/01/14 06:28:27;;;;;;;12.40;1.17;;;2.90;99.90;;;;;;5080879;28;20059;-65
2024/01/14 06:30:52;;;;;;;5.88;0.80;;;2.90;99.90;;;;;;5063412;28;20109;-64
2024/01/14 06:33:18;;;;;;;8.27;1.27;;;3.00;99.90;;;;;;5079991;28;20036;-66
2024/01/14 06:35:44;;;;;;;10.13;1.48;;;3.00;99.90;;;;;;5079105;28;20098;-66
2024/01/14 06:38:10;;;;;;;9.05;0.90;;;3.00;99.90;;;;;;5062836;28;20079;-65
2024/01/14 06:40:35;;;;;;;8.25;1.65;;;3.10;99.90;;;;;;5083036;28;20044;-66
2024/01/14 06:43:01;;;;;;;5.07;1.10;;;3.10;99.90;;;;;;5077685;28;20040;-64
2024/01/14 06:45:27;;;;;;;6.35;0.88;;;3.10;99.90;;;;;;5082630;28;20062;-66
2024/01/14 06:47:53;;;;;;;7.93;1.25;;;3.20;99.90;;;;;;5077558;28;20070;-64
2024/01/14 06:50:18;;;;;;;5.18;1.02;;;3.20;99.90;;;;;;5079102;28;20597;-67
2024/01/14 06:52:44;;;;;;;3.80;0.80;;;3.10;99.90;;;;;;5076964;28;20111;-65
2024/01/14 06:55:15;;;;;;;9.50;1.10;;;3.20;99.90;;;;;;5074191;28;20180;-65
2024/01/14 06:57:40;;;;;;;8.50;0.93;;;3.20;99.90;;;;;;5077046;28;20119;-65
2024/01/14 07:00:08;;;;;;;6.30;1.05;;;3.20;99.90;;;;;;5059682;28;20489;-65
2024/01/14 07:02:34;;;;;;;6.88;1.10;;;3.10;99.90;;;;;;5065026;28;20048;-64
2024/01/14 07:05:00;;;;;;;8.05;1.08;;;3.20;99.90;;;;;;5047761;28;20448;-65
2024/01/14 07:07:27;;;;;;;9.20;1.25;;;3.20;99.90;;;;;;5062857;28;20107;-66
2024/01/14 07:09:53;;;;;;;7.45;0.90;;;3.20;99.90;;;;;;5061621;28;20076;-66
2024/01/14 07:12:18;;;;;;;8.70;0.93;;;3.20;99.90;;;;;;5063621;28;20075;-64
2024/01/14 07:14:44;;;;;;;8.65;2.30;;;3.10;99.90;;;;;;5080239;28;20036;-64
2024/01/14 07:17:09;;;;;;;8.07;1.00;;;3.20;99.90;;;;;;5071122;28;20174;-65
2024/01/14 07:19:35;;;;;;;7.90;0.90;;;3.20;99.90;;;;;;5070158;28;20048;-67
2024/01/14 07:22:02;;;;;;;7.43;1.10;;;3.10;99.90;;;;;;5066747;28;20041;-65
2024/01/14 07:24:28;;;;;;;7.82;0.93;;;3.10;99.90;;;;;;5066312;28;20043;-64
2024/01/14 07:26:53;;;;;;;6.75;1.10;;;3.10;99.90;;;;;;5075220;28;20487;-64
2024/01/14 07:29:19;;;;;;;7.55;0.82;;;3.20;99.90;;;;;;5066033;28;20044;-66
2024/01/14 07:31:45;;;;;;;8.35;1.55;;;3.10;99.90;;;;;;5078276;28;20044;-66
2024/01/14 07:34:10;;;;;;;7.78;1.00;;;3.20;99.90;;;;;;5079301;28;20083;-64
2024/01/14 07:36:36;;;;;;;7.20;0.80;;;3.20;99.90;;;;;;5079786;28;20135;-64
2024/01/14 07:39:03;;;;;;;6.82;0.70;;;3.20;99.90;;;;;;5075662;28;20044;-65
2024/01/14 07:41:28;;;;;;;11.95;1.20;;;3.20;99.90;;;;;;5079950;28;20076;-64
2024/01/14 07:43:54;;;;;;;9.52;0.80;;;3.20;99.90;;;;;;5071169;28;20068;-63
2024/01/14 07:46:20;;;;;;;6.05;1.00;;;3.10;99.90;;;;;;5079072;28;20035;-66
2024/01/14 07:48:46;;;;;;;4.93;0.65;;;3.20;99.90;;;;;;5063530;28;20044;-65
2024/01/14 07:51:12;;;;;;;8.25;0.80;;;3.20;99.90;;;;;;5076448;28;20078;-65
2024/01/14 07:53:38;;;;;;;3.35;0.60;;;3.20;99.90;;;;;;5056142;28;20083;-66
2024/01/14 07:56:04;;;;;;;8.55;0.93;;;3.20;99.90;;;;;;5075536;28;20047;-64
2024/01/14 07:58:30;;;;;;;6.00;0.70;;;3.20;99.90;;;;;;5074028;28;20127;-65
2024/01/14 08:00:55;;;;;;;6.88;0.82;;;3.20;99.90;;;;;;5072722;28;20139;-64
2024/01/14 08:03:21;;;;;;;2.47;0.57;;;3.30;99.90;;;;;;5075021;28;20170;-64
2024/01/14 08:05:47;;;;;;;8.43;0.80;;;3.30;99.90;;;;;;5073942;28;20037;-64
2024/01/14 08:08:13;;;;;;;9.82;1.15;;;3.20;99.90;;;;;;5075931;28;20100;-65
2024/01/14 08:10:38;;;;;;;6.70;0.95;;;3.30;99.90;;;;;;5067827;28;20029;-65
2024/01/14 08:13:04;;;;;;;5.50;0.88;;;3.30;99.90;;;;;;5069519;28;20376;-64
2024/01/14 08:15:30;;;;;;;8.20;0.82;;;3.30;99.90;;;;;;5076501;28;20047;-63
2024/01/14 08:17:56;;;;;;;4.72;0.70;;;3.30;99.90;;;;;;5079393;28;20494;-64
2024/01/14 08:20:22;;;;;;;5.95;0.90;;;3.30;99.90;;;;;;5065988;28;20043;-62
2024/01/14 08:22:48;;;;;;;5.82;0.80;;;3.30;99.90;;;;;;5079380;28;20047;-65
2024/01/14 08:25:14;;;;;;;11.32;1.42;;;3.30;99.90;;;;;;5070477;28;20035;-64
2024/01/14 08:27:40;;;;;;;7.85;1.55;;;3.30;99.90;;;;;;5080298;28;20032;-63
2024/01/14 08:30:07;;;;;;;3.95;1.27;;;3.40;99.90;;;;;;5076847;28;20195;-65
2024/01/14 08:32:32;;;;;;;7.00;0.82;;;3.40;99.90;;;;;;5075947;28;20403;-65
2024/01/14 08:34:58;;;;;;;4.40;0.90;;;3.40;99.90;;;;;;5072840;28;20044;-63
2024/01/14 08:37:27;;;;;;;6.65;0.88;;;3.40;99.90;;;;;;5076630;28;20871;-64
2024/01/14 08:39:53;;;;;;;10.63;1.00;;;3.50;99.90;;;;;;5080088;28;20067;-65
2024/01/14 08:42:18;;;;;;;5.55;0.90;;;3.40;99.90;;;;;;5075472;28;20168;-62
2024/01/14 08:44:44;;;;;;;8.48;0.95;;;3.50;99.90;;;;;;5070998;28;20477;-64
2024/01/14 08:47:10;;;;;;;7.13;1.08;;;3.40;99.90;;;;;;5073382;28;20044;-64
2024/01/14 08:49:35;;;;;;;6.22;0.77;;;3.40;99.90;;;;;;5074728;28;20044;-62
2024/01/14 08:52:01;;;;;;;4.30;0.90;;;3.50;99.90;;;;;;5067149;28;20044;-65
2024/01/14 08:54:33;;;;;;;4.68;0.80;;;3.40;99.90;;;;;;5072860;28;20040;-63
2024/01/14 08:56:59;;;;;;;5.10;0.88;;;3.40;99.90;;;;;;5072869;28;21148;-63
2024/01/14 08:59:25;;;;;;;6.75;0.70;;;3.40;99.90;;;;;;5059222;28;20085;-62
2024/01/14 09:01:51;;;;;;;5.65;0.77;;;3.40;99.90;;;;;;5073454;28;20040;-63
2024/01/14 09:04:17;;;;;;;4.28;0.90;;;3.40;99.90;;;;;;5060406;28;20036;-63
2024/01/14 09:06:42;;;;;;;4.53;0.75;;;3.40;99.90;;;;;;5078189;28;20047;-64
2024/01/14 09:09:08;;;;;;;5.35;0.68;;;3.40;99.90;;;;;;5073862;28;20040;-64
2024/01/14 09:11:34;;;;;;;5.65;0.77;;;3.40;99.90;;;;;;5072170;28;20098;-64
2024/01/14 09:14:00;;;;;;;1.65;0.43;;;3.40;99.90;;;;;;5076526;28;20078;-64
2024/01/14 09:16:25;;;;;;;1.83;0.50;;;3.40;99.90;;;;;;5079797;28;20098;-64
2024/01/14 09:18:51;;;;;;;1.77;0.60;;;3.40;99.90;;;;;;5078144;28;20052;-64
2024/01/14 09:21:17;;;;;;;1.23;0.50;;;3.50;99.90;;;;;;5074007;28;20047;-65
2024/01/14 09:23:43;;;;;;;4.38;0.50;;;3.50;99.90;;;;;;5073161;28;20025;-65
2024/01/14 09:26:09;;;;;;;1.27;0.50;;;3.60;99.90;;;;;;5082772;28;20028;-64
2024/01/14 09:28:36;;;;;;;3.00;0.70;;;3.50;99.90;;;;;;5080002;28;20046;-63
2024/01/14 09:31:02;;;;;;;2.55;0.82;;;3.60;99.90;;;;;;5074003;28;20495;-64
2024/01/14 09:33:27;;;;;;;4.22;0.90;;;3.60;99.90;;;;;;5072394;28;20082;-66
2024/01/14 09:35:54;;;;;;;5.88;1.55;;;3.60;99.90;;;;;;5077080;28;20467;-62
2024/01/14 09:38:20;;;;;;;2.17;0.82;;;3.60;99.90;;;;;;5078953;28;20055;-64
2024/01/14 09:40:56;;;;;;;3.55;1.10;;;3.60;99.90;;;;;;5080484;28;20318;-63
2024/01/14 09:43:25;;;;;;;5.53;1.45;;;3.60;99.90;;;;;;5081216;28;20047;-65
2024/01/14 09:45:50;;;;;;;5.93;1.63;;;3.70;99.90;;;;;;5077906;28;20090;-64
2024/01/14 09:48:18;;;;;;;6.95;1.80;;;3.60;99.90;;;;;;5084446;28;20040;-63
2024/01/14 09:50:44;;;;;;;6.32;2.10;;;3.60;99.90;;;;;;5080769;28;20040;-65
2024/01/14 09:53:14;;;;;;;10.23;3.28;;;3.60;99.90;;;;;;5081954;28;20101;-63
2024/01/14 09:55:40;;;;;;;9.32;3.47;;;3.60;99.90;;;;;;5075486;28;20048;-63
2024/01/14 09:58:07;;;;;;;13.00;3.92;;;3.60;99.90;;;;;;5077537;28;20399;-62
2024/01/14 10:00:35;;;;;;;9.98;4.50;;;3.60;99.90;;;;;;5079716;28;20051;-64
2024/01/14 10:03:01;;;;;;;15.57;6.25;;;3.60;99.90;;;;;;5082585;28;20040;-64
2024/01/14 10:05:27;;;;;;;19.48;6.85;;;3.60;99.90;;;;;;5077221;28;20046;-63
2024/01/14 10:07:53;;;;;;;16.60;7.47;;;3.60;99.90;;;;;;5074298;28;20044;-65
2024/01/14 10:10:18;;;;;;;22.60;9.25;;;3.50;99.90;;;;;;5081427;28;20059;-64
2024/01/14 10:12:44;;;;;;;21.95;10.18;;;3.60;99.90;;;;;;5077962;28;20032;-65
2024/01/14 10:15:11;;;;;;;29.40;11.75;;;3.60;99.90;;;;;;5081263;28;20040;-63
2024/01/14 10:17:37;;;;;;;22.55;11.35;;;3.70;99.90;;;;;;5080261;28;20044;-64
2024/01/14 10:20:02;;;;;;;23.92;11.63;;;3.70;99.90;;;;;;5083196;28;20058;-64
2024/01/14 10:22:28;;;;;;;25.25;12.48;;;3.70;99.90;;;;;;5083943;28;20504;-64
2024/01/14 10:24:56;;;;;;;25.48;11.43;;;3.70;99.90;;;;;;5078079;28;20380;-63
2024/01/14 10:27:23;;;;;;;25.30;13.10;;;3.70;99.90;;;;;;5079767;28;20044;-64
2024/01/14 10:29:49;;;;;;;28.13;13.48;;;3.80;99.90;;;;;;5077211;28;20056;-62
2024/01/14 10:32:15;;;;;;;23.20;12.07;;;3.80;99.90;;;;;;5073154;28;20064;-63
2024/01/14 10:34:41;;;;;;;24.63;12.55;;;3.90;99.90;;;;;;5075509;28;20040;-63
2024/01/14 10:37:07;;;;;;;25.75;12.73;;;3.90;99.90;;;;;;5082845;28;20040;-64
2024/01/14 10:39:34;;;;;;;28.20;12.85;;;3.90;99.90;;;;;;5083005;28;20048;-63
2024/01/14 10:42:01;;;;;;;24.20;12.65;;;3.80;99.90;;;;;;5083330;28;20060;-63
2024/01/14 10:44:27;;;;;;;26.50;12.57;;;3.90;99.90;;;;;;5080460;28;20044;-64
2024/01/14 10:46:56;;;;;;;27.23;12.07;;;3.80;99.90;;;;;;5077965;28;20040;-63
2024/01/14 10:49:25;;;;;;;23.35;11.68;;;3.90;99.90;;;;;;5070231;28;20044;-64
2024/01/14 10:51:59;;;;;;;22.63;11.55;;;3.90;99.90;;;;;;5081449;28;20081;-64
2024/01/14 10:54:35;;;;;;;24.98;11.80;;;3.90;99.90;;;;;;5081493;28;20048;-63
2024/01/14 10:57:20;;;;;;;23.38;11.45;;;3.80;99.90;;;;;;5071418;28;20045;-65
2024/01/14 10:59:48;;;;;;;21.42;11.32;;;3.90;99.90;;;;;;5075414;28;20067;-65
2024/01/14 11:02:17;;;;;;;20.55;11.02;;;3.80;99.90;;;;;;5080819;28;20587;-65
2024/01/14 11:04:47;;;;;;;21.25;11.18;;;3.80;99.90;;;;;;5079114;28;20040;-64
2024/01/14 11:07:13;;;;;;;20.83;11.10;;;3.90;99.90;;;;;;5062215;28;20052;-65
2024/01/14 11:09:41;;;;;;;23.23;11.23;;;3.80;99.90;;;;;;5075053;28;20052;-65
2024/01/14 11:12:14;;;;;;;21.70;11.23;;;3.90;99.90;;;;;;5072232;28;20063;-65
2024/01/14 11:14:46;;;;;;;;;;;3.80;99.90;;;;;;5071764;28;20044;-64
2024/01/14 11:17:24;;;;;;;24.02;12.68;;;3.80;99.90;;;;;;5053938;28;20307;-65
2024/01/14 11:19:50;;;;;;;24.42;12.93;;;3.80;99.90;;;;;;5070543;28;20103;-65
2024/01/14 11:22:22;;;;;;;27.80;12.88;;;3.80;99.90;;;;;;5070793;28;20368;-64
2024/01/14 11:24:48;;;;;;;23.53;12.87;;;3.80;99.90;;;;;;5071929;28;20446;-63
2024/01/14 11:27:14;;;;;;;24.50;13.30;;;3.70;99.90;;;;;;5072109;28;20120;-63
2024/01/14 11:29:40;;;;;;;30.38;14.07;;;3.70;99.90;;;;;;5070599;28;20044;-64
2024/01/14 11:32:16;;;;;;;26.42;13.75;;;3.70;99.90;;;;;;5070548;28;20040;-63
2024/01/14 11:34:47;;;;;;;28.00;14.27;;;3.70;99.90;;;;;;5070284;28;20153;-65
2024/01/14 11:37:40;;;;;;;27.75;14.18;;;3.80;99.90;;;;;;5070477;28;20141;-63
2024/01/14 11:40:26;;;;;;;30.05;14.85;;;3.80;99.90;;;;;;5070402;28;20540;-63
2024/01/14 11:43:01;;;;;;;26.83;15.55;;;3.80;99.90;;;;;;5053560;28;20540;-63
2024/01/14 11:45:27;;;;;;;30.98;15.27;;;3.80;99.90;;;;;;5070081;28;20036;-65
2024/01/14 11:47:54;;;;;;;34.85;16.48;;;3.70;99.90;;;;;;5070033;28;20421;-65
2024/01/14 11:50:21;;;;;;;31.52;15.45;;;3.70;99.90;;;;;;5071464;28;20036;-64
2024/01/14 11:52:51;;;;;;;30.52;15.57;;;3.60;99.90;;;;;;5067372;28;20036;-65
2024/01/14 11:55:18;;;;;;;31.27;15.95;;;3.70;99.90;;;;;;5070171;28;20045;-64
2024/01/14 11:57:47;;;;;;;32.63;15.80;;;3.60;99.90;;;;;;5070067;28;20495;-64
2024/01/14 12:00:14;;;;;;;32.25;14.18;;;3.70;99.90;;;;;;5071214;28;20079;-64
2024/01/14 12:02:40;;;;;;;31.70;16.20;;;3.60;99.90;;;;;;5071167;28;20051;-64
2024/01/14 12:05:16;;;;;;;28.50;15.95;;;3.70;99.90;;;;;;5058854;28;20056;-64
2024/01/14 12:07:42;;;;;;;32.55;16.45;;;3.80;99.90;;;;;;5089822;28;20050;-63
2024/01/14 12:10:13;;;;;;;29.23;15.70;;;3.80;99.90;;;;;;5090009;28;20489;-63
2024/01/14 12:12:38;;;;;;;32.75;15.63;;;3.80;99.90;;;;;;5089958;28;20043;-65
2024/01/14 12:15:04;;;;;;;30.73;15.75;;;3.90;99.90;;;;;;5089843;28;20498;-64
2024/01/14 12:17:31;;;;;;;32.00;16.83;;;3.90;99.90;;;;;;5089884;28;20130;-64
2024/01/14 12:20:08;;;;;;;31.20;16.45;;;3.80;99.90;;;;;;5091052;28;20128;-63
2024/01/14 12:22:36;;;;;;;31.27;16.92;;;3.90;99.90;;;;;;5089860;28;20075;-64
2024/01/14 12:25:03;;;;;;;28.73;15.18;;;3.90;99.90;;;;;;5089801;28;20039;-64
2024/01/14 12:27:29;;;;;;;32.50;15.63;;;4.00;99.90;;;;;;5089771;28;20120;-63
2024/01/14 12:29:55;;;;;;;29.48;14.90;;;4.00;99.90;;;;;;5089685;28;20050;-65
2024/01/14 12:32:21;;;;;;;28.92;14.60;;;4.10;99.90;;;;;;5091107;28;20031;-63
2024/01/14 12:34:49;;;;;;;24.20;14.55;;;4.10;99.90;;;;;;5090666;28;20056;-63
2024/01/14 12:37:15;;;;;;;27.77;14.93;;;4.00;99.90;;;;;;5089604;28;20028;-66
2024/01/14 12:39:40;;;;;;;24.55;13.38;;;4.10;99.90;;;;;;5089531;28;20048;-65
2024/01/14 12:42:06;;;;;;;28.00;13.85;;;4.10;99.90;;;;;;5089487;28;20115;-64
2024/01/14 12:44:39;;;;;;;25.60;12.65;;;4.00;99.90;;;;;;5090659;28;20040;-64
2024/01/14 12:47:06;;;;;;;24.92;13.52;;;4.00;99.90;;;;;;5089410;28;20043;-64